createdAt,value
2023-05-11T09:22:41.888Z,106677.84
2023-05-11T09:25:12.738Z,106665.28
2023-05-11T09:27:44.060Z,106497.63
2023-05-11T09:30:14.356Z,106482.28
2023-05-11T09:32:51.720Z,106240.91
2023-05-11T09:35:24.063Z,106417.41
2023-05-11T09:38:01.040Z,106343.56
2023-05-11T09:40:34.127Z,106425.53
2023-05-11T09:43:03.671Z,106533.56
2023-05-11T09:45:39.531Z,106523.72
2023-05-11T09:48:09.606Z,106715.56
2023-05-11T09:50:37.518Z,106839.31
2023-05-11T09:53:07.000Z,107026.16
2023-05-11T09:55:34.921Z,107083.09
2023-05-11T09:58:02.744Z,106903.22
2023-05-11T10:00:33.548Z,107132.59
2023-05-11T10:03:03.782Z,106935.66
2023-05-11T10:05:33.138Z,106762.28
2023-05-11T10:08:02.784Z,106520.59
2023-05-11T10:10:34.627Z,106688.19
2023-05-11T10:13:04.072Z,106671.06
2023-05-11T10:15:35.317Z,106979.72
2023-05-11T10:18:03.647Z,106935.50
2023-05-11T10:20:31.939Z,107017.66
2023-05-11T10:22:59.994Z,107273.31
2023-05-11T10:25:28.117Z,107090.78
2023-05-11T10:27:58.609Z,106959.78
2023-05-11T10:30:26.863Z,106982.13
2023-05-11T10:32:56.761Z,107121.28
2023-05-11T10:35:24.735Z,107430.66
2023-05-11T10:37:52.587Z,107668.06
2023-05-11T10:40:20.904Z,107740.59
2023-05-11T10:43:16.864Z,107906.53
2023-05-11T10:45:52.823Z,108087.22
2023-05-11T10:48:43.851Z,107877.38
2023-05-11T10:51:42.460Z,107289.38
2023-05-11T10:54:42.908Z,107271.94
2023-05-11T10:57:23.974Z,107404.06
2023-05-11T11:00:47.964Z,107105.56
2023-05-11T11:03:16.690Z,107300.69
2023-05-11T11:05:45.378Z,107431.97
2023-05-11T11:08:13.649Z,107608.81
2023-05-11T11:10:43.935Z,107223.78
2023-05-11T11:13:12.634Z,107466.31
2023-05-11T11:16:16.546Z,107722.69
2023-05-11T11:18:44.603Z,107343.06
2023-05-11T11:21:15.680Z,107020.19
2023-05-11T11:23:51.017Z,106947.75
2023-05-11T11:26:39.933Z,107176.44
2023-05-11T11:29:12.804Z,107180.00
2023-05-11T11:31:43.128Z,107022.69
2023-05-11T11:34:33.900Z,107273.88
2023-05-11T11:37:03.976Z,107203.38
2023-05-11T11:39:50.039Z,107182.53
2023-05-11T11:42:19.936Z,107317.22
2023-05-11T11:44:49.101Z,107221.38
2023-05-11T11:47:21.608Z,107142.63
2023-05-11T11:49:51.461Z,107323.44
2023-05-11T11:52:34.810Z,107362.47
2023-05-11T11:55:05.051Z,107358.59
2023-05-11T11:57:51.447Z,107735.44
2023-05-11T12:00:22.812Z,107645.75
2023-05-11T12:02:50.828Z,107551.50
2023-05-11T12:05:22.532Z,107723.56
2023-05-11T12:07:52.272Z,107900.66
2023-05-11T12:10:23.314Z,107688.19
2023-05-11T12:12:54.872Z,107714.34
2023-05-11T12:15:28.575Z,107418.03
2023-05-11T12:17:57.093Z,107210.06
2023-05-11T12:20:26.009Z,107275.78
2023-05-11T12:22:54.021Z,107038.94
2023-05-11T12:25:22.362Z,107272.06
2023-05-11T12:27:54.727Z,107278.38
2023-05-11T12:30:24.126Z,107255.75
2023-05-11T12:32:57.541Z,107342.59
2023-05-11T12:35:26.917Z,107328.88
2023-05-11T12:37:55.237Z,107635.03
2023-05-11T12:40:23.224Z,107824.47
2023-05-11T12:42:52.113Z,107890.66
2023-05-11T12:45:20.967Z,108223.22
2023-05-11T12:47:50.422Z,107662.13
2023-05-11T12:50:20.550Z,107618.50
2023-05-11T12:52:50.230Z,107341.41
2023-05-11T12:55:28.408Z,107174.88
2023-05-11T12:58:08.683Z,107095.25
2023-05-11T13:00:36.779Z,107008.34
2023-05-11T13:03:05.075Z,107447.91
2023-05-11T13:05:35.256Z,107708.97
2023-05-11T13:08:04.879Z,107619.09
2023-05-11T13:10:33.134Z,107445.88
2023-05-11T13:13:00.906Z,107225.06
2023-05-11T13:15:29.468Z,106966.53
2023-05-11T13:17:59.135Z,106638.91
2023-05-11T13:20:29.566Z,106330.75
2023-05-11T13:23:07.093Z,106334.19
2023-05-11T13:25:36.459Z,106578.25
2023-05-11T13:28:04.646Z,106837.06
2023-05-11T13:30:34.893Z,106756.78
2023-05-11T13:33:03.337Z,106877.72
2023-05-11T13:35:31.213Z,106893.78
2023-05-11T13:37:59.344Z,106917.31
2023-05-11T13:40:28.577Z,106671.78
2023-05-11T13:42:56.818Z,106984.97
2023-05-11T13:45:24.695Z,106977.72
2023-05-11T13:47:52.500Z,106788.03
2023-05-11T13:50:20.255Z,106948.63
2023-05-11T13:52:48.234Z,106993.84
2023-05-11T13:55:16.411Z,106867.22
2023-05-11T13:57:45.832Z,107037.09
2023-05-11T14:00:15.165Z,106950.38
2023-05-11T14:02:44.976Z,106630.91
2023-05-11T14:05:12.820Z,106664.25
2023-05-11T14:07:47.196Z,106397.56
2023-05-11T14:10:15.839Z,106587.59
2023-05-11T14:12:45.169Z,106577.56
2023-05-11T14:15:13.410Z,107148.06
2023-05-11T14:17:43.025Z,107157.09
2023-05-11T14:20:12.429Z,106471.31
2023-05-11T14:22:40.983Z,106199.19
2023-05-11T14:25:09.702Z,106332.38
2023-05-11T14:27:37.673Z,106303.47
2023-05-11T14:30:08.377Z,106082.13
2023-05-11T14:32:36.152Z,106098.41
2023-05-11T14:35:05.031Z,106047.91
2023-05-11T14:37:33.853Z,106223.31
2023-05-11T14:40:01.984Z,106384.16
2023-05-11T14:42:30.163Z,106437.47
2023-05-11T14:44:57.987Z,106511.25
2023-05-11T14:47:27.306Z,106334.75
2023-05-11T14:49:55.253Z,106540.81
2023-05-11T14:52:23.040Z,106144.81
2023-05-11T14:54:51.012Z,105724.47
2023-05-11T14:57:18.762Z,105681.19
2023-05-11T14:59:58.443Z,105452.69
2023-05-11T15:02:29.724Z,105570.09
2023-05-11T15:04:57.558Z,105591.44
2023-05-11T15:07:25.609Z,105769.00
2023-05-11T15:09:53.947Z,105633.59
2023-05-11T15:12:21.799Z,105880.22
2023-05-11T15:14:49.554Z,105525.94
2023-05-11T15:17:17.444Z,105335.06
2023-05-11T15:19:46.778Z,105454.09
2023-05-11T15:22:14.489Z,105434.38
2023-05-11T15:24:42.403Z,104982.69
2023-05-11T15:27:10.308Z,104647.81
2023-05-11T15:29:38.176Z,104540.88
2023-05-11T15:32:06.696Z,104643.06
2023-05-11T15:34:39.489Z,104637.81
2023-05-11T15:37:13.766Z,104706.66
2023-05-11T15:39:41.550Z,104713.44
2023-05-11T15:42:09.387Z,104735.91
2023-05-11T15:44:37.192Z,104663.53
2023-05-11T15:47:06.102Z,104625.19
2023-05-11T15:49:33.947Z,104680.53
2023-05-11T15:52:01.782Z,104812.56
2023-05-11T15:54:30.895Z,104824.88
2023-05-11T15:56:58.759Z,104725.00
2023-05-11T15:59:26.701Z,104625.00
2023-05-11T16:01:54.812Z,104611.50
2023-05-11T16:04:22.566Z,104611.59
2023-05-11T16:06:50.314Z,104472.41
2023-05-11T16:09:18.345Z,104253.41
2023-05-11T16:11:47.520Z,103986.56
2023-05-11T16:14:15.276Z,104071.94
2023-05-11T16:16:43.348Z,103817.94
2023-05-11T16:19:11.257Z,103631.69
2023-05-11T16:21:39.322Z,103540.28
2023-05-11T16:24:07.975Z,103633.22
2023-05-11T16:26:36.234Z,103547.19
2023-05-11T16:29:05.994Z,103478.84
2023-05-11T16:31:34.232Z,103431.97
2023-05-11T16:34:02.237Z,103129.41
2023-05-11T16:36:30.529Z,102851.91
2023-05-11T16:38:59.612Z,102565.16
2023-05-11T16:41:28.802Z,102430.31
2023-05-11T16:43:56.862Z,102361.66
2023-05-11T16:46:29.871Z,102297.44
2023-05-11T16:48:58.776Z,102204.84
2023-05-11T16:51:26.662Z,102207.53
2023-05-11T16:53:54.649Z,102134.59
2023-05-11T16:56:22.554Z,102085.09
2023-05-11T16:58:50.491Z,102067.50
2023-05-11T17:01:18.553Z,102078.13
2023-05-11T17:03:47.885Z,102047.31
2023-05-11T17:06:20.680Z,102022.59
2023-05-11T17:08:48.768Z,102001.56
2023-05-11T17:11:16.535Z,101931.34
2023-05-11T17:13:44.396Z,101904.97
2023-05-11T17:16:12.246Z,101888.22
2023-05-11T17:18:40.149Z,101867.16
2023-05-11T17:21:09.724Z,101838.09
2023-05-11T17:23:37.602Z,101828.56
2023-05-11T17:26:10.236Z,101818.06
2023-05-11T17:28:38.074Z,101774.09
2023-05-11T17:31:10.082Z,101740.84
2023-05-11T17:33:38.586Z,101706.50
2023-05-11T17:36:07.342Z,101686.34
2023-05-11T17:38:36.905Z,101648.50
2023-05-11T17:41:05.976Z,101619.44
2023-05-11T17:43:34.064Z,101576.63
2023-05-11T17:46:03.988Z,101541.72
2023-05-11T17:48:32.550Z,101500.63
2023-05-11T17:51:00.381Z,101463.53
2023-05-11T17:53:28.191Z,101411.81
2023-05-11T17:55:59.172Z,101395.13
2023-05-11T17:58:27.753Z,101364.06
2023-05-11T18:00:55.714Z,101355.06
2023-05-11T18:03:23.624Z,101334.09
2023-05-11T18:05:51.436Z,101306.00
2023-05-11T18:08:19.271Z,101302.47
2023-05-11T18:10:47.095Z,101281.41
2023-05-11T18:13:17.403Z,101253.41
2023-05-11T18:15:45.914Z,101226.25
2023-05-11T18:18:14.575Z,101188.59
2023-05-11T18:20:45.450Z,101148.69
2023-05-11T18:23:14.143Z,101124.84
2023-05-11T18:25:42.249Z,101079.44
2023-05-11T18:28:10.045Z,101067.25
2023-05-11T18:30:39.605Z,101006.81
2023-05-11T18:33:07.376Z,100981.75
2023-05-11T18:35:36.058Z,100937.00
2023-05-11T18:38:05.085Z,100929.94
2023-05-11T18:40:32.992Z,100907.34
2023-05-11T18:43:01.540Z,100857.47
2023-05-11T18:45:34.974Z,100804.25
2023-05-11T18:48:04.755Z,100810.34
2023-05-11T18:50:32.511Z,100795.53
2023-05-11T18:53:00.521Z,100746.53
2023-05-11T18:55:30.896Z,100735.38
2023-05-11T18:57:59.460Z,100684.78
2023-05-11T19:00:27.318Z,100661.34
2023-05-11T19:02:55.266Z,100634.25
2023-05-11T19:05:24.489Z,100643.72
2023-05-11T19:07:52.460Z,100641.16
2023-05-11T19:10:20.387Z,100602.69
2023-05-11T19:12:48.285Z,100582.81
2023-05-11T19:15:16.106Z,100530.38
2023-05-11T19:17:43.900Z,100437.38
2023-05-11T19:20:12.755Z,100383.44
2023-05-11T19:22:42.080Z,100303.34
2023-05-11T19:25:10.974Z,100245.94
2023-05-11T19:27:39.927Z,100168.59
2023-05-11T19:30:09.624Z,100139.06
2023-05-11T19:32:38.184Z,100170.53
2023-05-11T19:35:06.484Z,100151.16
2023-05-11T19:37:35.153Z,100103.47
2023-05-11T19:40:26.551Z,100063.31
2023-05-11T19:42:54.138Z,99957.63
2023-05-11T19:45:22.152Z,99852.44
2023-05-11T19:47:55.706Z,99731.94
2023-05-11T19:50:24.648Z,99629.56
2023-05-11T19:52:53.179Z,99522.22
2023-05-11T19:55:22.463Z,99466.03
2023-05-11T19:57:50.422Z,99382.91
2023-05-11T20:00:20.367Z,99280.16
2023-05-11T20:02:48.505Z,99194.84
2023-05-11T20:05:16.435Z,99122.16
2023-05-11T20:07:44.392Z,99114.47
2023-05-11T20:10:12.985Z,99072.16
2023-05-11T20:12:42.077Z,99027.16
2023-05-11T20:15:10.993Z,98966.56
2023-05-11T20:17:39.687Z,98919.22
2023-05-11T20:20:08.638Z,98871.91
2023-05-11T20:22:37.390Z,98820.97
2023-05-11T20:25:09.635Z,98764.09
2023-05-11T20:27:46.080Z,98714.16
2023-05-11T20:30:14.695Z,98668.44
2023-05-11T20:34:06.798Z,98629.00
2023-05-11T20:35:31.117Z,98586.22
2023-05-11T20:37:59.133Z,98559.88
2023-05-11T20:40:27.718Z,98527.97
2023-05-11T20:42:57.490Z,98512.38
2023-05-11T20:45:25.411Z,98487.72
2023-05-11T20:47:53.582Z,98463.50
2023-05-11T20:50:21.822Z,98448.22
2023-05-11T20:52:49.853Z,98397.09
2023-05-11T20:55:17.973Z,98360.25
2023-05-11T20:57:46.098Z,98319.09
2023-05-11T21:00:17.670Z,98281.94
2023-05-11T21:02:46.099Z,98255.38
2023-05-11T21:05:13.998Z,98220.09
2023-05-11T21:07:41.863Z,98210.63
2023-05-11T21:10:12.002Z,98184.75
2023-05-11T21:12:39.821Z,98169.78
2023-05-11T21:15:08.813Z,98131.69
2023-05-11T21:17:38.004Z,98130.03
2023-05-11T21:20:06.509Z,98112.81
2023-05-11T21:22:34.455Z,98101.69
2023-05-11T21:25:04.385Z,98136.69
2023-05-11T21:27:32.350Z,98126.41
2023-05-11T21:30:00.185Z,98123.91
2023-05-11T21:32:28.213Z,98108.22
2023-05-11T21:34:57.577Z,98093.78
2023-05-11T21:37:25.398Z,98078.34
2023-05-11T21:39:53.225Z,98064.59
2023-05-11T21:42:21.787Z,98057.78
2023-05-11T21:44:49.622Z,98022.53
2023-05-11T21:47:17.406Z,97990.91
2023-05-11T21:49:45.395Z,97950.47
2023-05-11T21:52:14.715Z,97940.38
2023-05-11T21:54:42.459Z,97924.97
2023-05-11T21:57:10.370Z,97910.41
2023-05-11T21:59:38.135Z,97905.13
2023-05-11T22:02:06.225Z,97902.63
2023-05-11T22:04:34.079Z,97866.53
2023-05-11T22:07:02.001Z,97845.19
2023-05-11T22:09:31.625Z,97826.34
2023-05-11T22:11:59.398Z,97798.88
2023-05-11T22:14:27.252Z,97792.78
2023-05-11T22:16:55.690Z,97780.88
2023-05-11T22:19:23.431Z,97755.88
2023-05-11T22:21:51.341Z,97718.50
2023-05-11T22:24:19.295Z,97713.22
2023-05-11T22:26:48.459Z,97726.78
2023-05-11T22:29:16.395Z,97708.09
2023-05-11T22:31:46.055Z,97683.41
2023-05-11T22:34:14.153Z,97679.13
2023-05-11T22:36:42.037Z,97707.13
2023-05-11T22:39:11.392Z,97661.09
2023-05-11T22:41:41.146Z,97609.56
2023-05-11T22:44:10.581Z,97573.56
2023-05-11T22:46:41.264Z,97555.84
2023-05-11T22:49:10.632Z,97529.78
2023-05-11T22:51:38.422Z,97499.06
2023-05-11T22:54:06.436Z,97471.97
2023-05-11T22:56:34.333Z,97506.00
2023-05-11T22:59:02.124Z,97506.00
2023-05-11T23:01:31.351Z,97535.88
2023-05-11T23:03:59.287Z,97538.22
2023-05-11T23:06:27.409Z,97569.44
2023-05-11T23:08:55.220Z,97580.50
2023-05-11T23:11:23.000Z,97629.22
2023-05-11T23:13:50.701Z,97658.31
2023-05-11T23:16:19.288Z,97691.56
2023-05-11T23:18:48.663Z,97696.00
2023-05-11T23:21:16.606Z,97702.66
2023-05-11T23:23:44.454Z,97692.38
2023-05-11T23:26:12.572Z,97710.59
2023-05-11T23:28:40.562Z,97723.16
2023-05-11T23:31:08.583Z,97760.88
2023-05-11T23:33:36.647Z,97748.94
2023-05-11T23:36:06.290Z,97756.56
2023-05-11T23:38:34.081Z,97764.22
2023-05-11T23:41:01.919Z,97710.44
2023-05-11T23:43:30.224Z,97682.13
2023-05-11T23:45:58.519Z,97698.50
2023-05-11T23:48:26.701Z,97661.66
2023-05-11T23:50:56.183Z,97633.50
2023-05-11T23:53:25.554Z,97630.88
2023-05-11T23:55:53.931Z,97585.47
2023-05-11T23:58:21.697Z,97545.28
